Ossian, Iowa
Current Conditions -  °F | °C
As of 11:15 PM on Thursday 30 Oct 2014 (Local Time) from KDEH Reporting Station
Overcast Overcast  
Wind Chill: 34°   Ceiling: 4400
Heat Index: 41°   Visibility: 10mi
Dew Point: 28°   Wind: 13mph
Humidity: 61%   Direction: 330°NNW
Pressure: 30.17"   Gusts: 18mph
Location:  43.15°N, 91.76°W
Report Text: KDEH 310415Z AUTO 33011G16KT 10SM OVC044 05/M02 A3017 RMK AO2
Loading
Personal Weather Stations






























Interactive Weather Map
Tropical Storm Tracking
New forecast layout! Learn more

10-Day Weather Forecast

Advertisements
Track Severe Weather on mobile